Time;durP1;ratioP1;P1;durP2;ratioP2;P2;SDS_P1;SDS_P2;PMS_P1;PMS_P2;Temp;Humidity;BMP_temperature;BMP_pressure;BME280_temperature;BME280_humidity;BME280_pressure;Samples;Min_cycle;Max_cycle;Signal;HPM_P1;HPM_P2
2023/08/02 00:00:38;;;;;;;5.33;1.77;;;;;;;11.67;100.00;95118.50;7397102;19;20388;-90
2023/08/02 00:03:05;;;;;;;2.60;2.40;;;;;;;11.82;100.00;95149.31;7403828;19;20943;-91
2023/08/02 00:05:32;;;;;;;4.17;2.50;;;;;;;12.46;100.00;95252.53;7397087;19;20369;-91
2023/08/02 00:07:59;;;;;;;5.23;1.90;;;;;;;12.48;100.00;95261.66;7400189;19;20373;-91
2023/08/02 00:10:26;;;;;;;2.80;2.23;;;;;;;11.34;100.00;95106.78;7396125;19;20414;-90
2023/08/02 00:12:53;;;;;;;3.93;2.30;;;;;;;11.27;100.00;95113.88;7400025;19;20380;-90
2023/08/02 00:15:21;;;;;;;3.67;1.90;;;;;;;11.21;100.00;95121.38;7397952;19;20388;-91
2023/08/02 00:17:48;;;;;;;3.13;2.10;;;;;;;12.25;100.00;95253.84;7397194;19;20389;-90
2023/08/02 00:20:15;;;;;;;3.27;2.07;;;;;;;12.22;100.00;95245.88;7399017;19;20400;-91
2023/08/02 00:22:42;;;;;;;2.63;2.30;;;;;;;12.52;100.00;95281.00;7397056;19;20969;-90
2023/08/02 00:25:09;;;;;;;4.53;2.13;;;;;;;11.60;100.00;95140.34;7396736;19;20380;-90
2023/08/02 00:27:36;;;;;;;3.00;1.80;;;;;;;12.33;100.00;95278.53;7396869;19;20384;-91
2023/08/02 00:30:04;;;;;;;3.07;2.83;;;;;;;12.15;100.00;95273.03;7395224;19;20389;-91
2023/08/02 00:32:30;;;;;;;3.40;1.93;;;;;;;11.72;100.00;95251.31;7395511;19;21016;-91
2023/08/02 00:34:59;;;;;;;6.07;2.10;;;;;;;11.49;100.00;95234.78;7398769;19;20966;-91
2023/08/02 00:37:26;;;;;;;4.60;2.43;;;;;;;10.72;100.00;95132.06;7400482;19;20369;-91
2023/08/02 00:39:53;;;;;;;5.53;2.37;;;;;;;11.48;100.00;95244.56;7398230;19;20924;-91
2023/08/02 00:42:21;;;;;;;2.77;2.30;;;;;;;11.74;100.00;95304.66;7398474;19;20413;-91
2023/08/02 00:44:48;;;;;;;2.63;2.03;;;;;;;10.86;100.00;95169.28;7395793;19;20397;-92
2023/08/02 00:47:16;;;;;;;3.87;2.20;;;;;;;11.48;100.00;95271.03;7397712;19;20369;-91
2023/08/02 00:49:45;;;;;;;7.23;2.97;;;;;;;10.28;100.00;95108.72;7396488;19;20758;-91
2023/08/02 00:52:12;;;;;;;5.33;2.70;;;;;;;9.85;100.00;95052.56;7396568;19;20420;-91
2023/08/02 00:54:41;;;;;;;4.43;2.73;;;;;;;10.89;100.00;95218.78;7396495;19;20369;-91
2023/08/02 00:57:09;;;;;;;2.93;2.10;;;;;;;11.04;100.00;95236.41;7399896;19;20389;-91
2023/08/02 00:59:38;;;;;;;3.63;2.20;;;;;;;10.33;100.00;95130.34;7396340;19;20391;-91
2023/08/02 01:02:06;;;;;;;2.43;2.23;;;;;;;10.45;100.00;95142.59;7399443;19;20420;-91
2023/08/02 01:04:35;;;;;;;3.30;2.27;;;;;;;11.19;100.00;95242.66;7405022;19;20373;-91
2023/08/02 01:07:22;;;;;;;3.10;2.70;;;;;;;11.63;100.00;95287.16;7399405;19;20393;-91
2023/08/02 01:09:57;;;;;;;3.83;2.43;;;;;;;11.23;100.00;95223.09;7397928;19;20388;-91
2023/08/02 01:12:25;;;;;;;3.37;2.43;;;;;;;10.91;100.00;95184.81;7397395;19;20844;-91
2023/08/02 01:14:56;;;;;;;2.60;2.33;;;;;;;11.42;100.00;95246.00;7398870;19;20372;-92
2023/08/02 01:17:25;;;;;;;5.43;2.30;;;;;;;11.29;100.00;95231.47;7397958;19;20763;-91
2023/08/02 01:20:00;;;;;;;3.20;2.70;;;;;;;10.64;100.00;95134.59;7397581;19;20417;-91
2023/08/02 01:22:27;;;;;;;8.80;3.30;;;;;;;11.42;100.00;95259.25;7402774;19;20448;-91
2023/08/02 01:24:56;;;;;;;3.23;2.20;;;;;;;10.75;100.00;95163.81;7432480;19;20392;-91
2023/08/02 01:27:25;;;;;;;3.10;2.53;;;;;;;10.38;100.00;95121.34;7434248;19;20392;-92
2023/08/02 01:29:54;;;;;;;7.63;3.40;;;;;;;9.91;100.00;95063.63;7431624;19;20411;-91
2023/08/02 01:32:23;;;;;;;4.77;2.50;;;;;;;9.15;100.00;94944.75;7410662;19;20410;-91
2023/08/02 01:34:51;;;;;;;11.33;2.50;;;;;;;10.13;100.00;95083.19;7406238;19;20397;-91
2023/08/02 01:37:19;;;;;;;4.90;2.90;;;;;;;11.46;100.00;95275.94;7406735;19;20388;-91
2023/08/02 01:39:46;;;;;;;4.53;2.37;;;;;;;10.32;100.00;95101.66;7408944;19;20385;-91
2023/08/02 01:42:14;;;;;;;4.83;2.50;;;;;;;10.05;100.00;95050.63;7403753;19;20426;-91
2023/08/02 01:44:41;;;;;;;3.10;2.90;;;;;;;10.43;100.00;95099.16;7407058;19;20376;-91
2023/08/02 01:47:08;;;;;;;4.53;2.53;;;;;;;10.83;100.00;95156.78;7405441;19;20390;-90
2023/08/02 01:49:35;;;;;;;2.67;2.47;;;;;;;11.12;100.00;95193.06;7402098;19;20796;-91
2023/08/02 01:52:02;;;;;;;4.27;3.17;;;;;;;11.27;100.00;95209.13;7401394;19;20416;-92
2023/08/02 01:54:29;;;;;;;2.80;2.60;;;;;;;11.47;100.00;95229.81;7402158;19;20392;-91
2023/08/02 01:56:56;;;;;;;4.50;2.13;;;;;;;11.38;100.00;95208.16;7404327;19;20388;-91
2023/08/02 01:59:23;;;;;;;11.73;2.77;;;;;;;11.44;100.00;95205.94;7400782;19;20472;-91
2023/08/02 02:01:50;;;;;;;2.83;2.50;;;;;;;11.02;100.00;95135.50;7418632;19;20443;-92
2023/08/02 02:04:17;;;;;;;2.90;2.70;;;;;;;11.92;100.00;95267.88;7414519;19;20467;-92
2023/08/02 02:06:44;;;;;;;8.50;3.10;;;;;;;11.72;100.00;95216.88;7407213;19;20385;-91
2023/08/02 02:09:12;;;;;;;5.33;3.20;;;;;;;11.53;100.00;95178.09;7401596;19;20417;-91
2023/08/02 02:11:39;;;;;;;7.90;3.50;;;;;;;11.70;100.00;95208.56;7403005;19;20411;-91
2023/08/02 02:14:06;;;;;;;4.30;3.00;;;;;;;11.65;100.00;95176.34;7402990;19;20900;-91
2023/08/02 02:16:32;;;;;;;3.20;2.87;;;;;;;11.80;100.00;95186.75;7403325;19;20756;-92
2023/08/02 02:18:59;;;;;;;4.50;2.90;;;;;;;11.66;100.00;95160.09;7402753;19;20728;-92
2023/08/02 02:21:27;;;;;;;3.30;3.00;;;;;;;12.13;100.00;95231.00;7404662;19;20425;-91
2023/08/02 02:23:54;;;;;;;7.53;2.70;;;;;;;11.75;100.00;95184.41;7406968;19;20383;-91
2023/08/02 02:26:22;;;;;;;4.03;3.00;;;;;;;10.65;100.00;95085.13;7407569;19;20389;-91
2023/08/02 02:28:49;;;;;;;3.00;2.67;;;;;;;11.82;100.00;95247.31;7403868;19;20400;-91
2023/08/02 02:31:16;;;;;;;3.10;2.90;;;;;;;11.26;100.00;95171.34;7402976;19;20432;-90
2023/08/02 02:33:43;;;;;;;3.10;2.77;;;;;;;11.06;100.00;95123.06;7402144;19;20400;-92
2023/08/02 02:36:11;;;;;;;5.60;3.73;;;;;;;11.07;100.00;95129.88;7401181;19;20380;-92
2023/08/02 02:38:38;;;;;;;4.07;2.90;;;;;;;11.42;100.00;95179.09;7402000;19;20385;-92
2023/08/02 02:41:05;;;;;;;4.17;3.00;;;;;;;11.25;100.00;95140.72;7402977;19;20428;-92
2023/08/02 02:43:32;;;;;;;5.17;2.50;;;;;;;10.85;100.00;95075.22;7403163;19;20418;-92
2023/08/02 02:45:59;;;;;;;4.10;3.03;;;;;;;9.50;100.00;94869.94;7400376;19;20361;-92
2023/08/02 02:48:26;;;;;;;5.37;2.80;;;;;;;10.43;100.00;95007.44;7400186;19;20409;-92
2023/08/02 02:50:53;;;;;;;3.20;2.83;;;;;;;11.36;100.00;95146.13;7400275;19;20416;-92
2023/08/02 02:53:22;;;;;;;3.03;2.50;;;;;;;10.63;100.00;95035.25;7399351;19;20383;-92
2023/08/02 02:55:51;;;;;;;6.20;3.47;;;;;;;10.93;100.00;95074.94;7399746;19;20393;-92
2023/08/02 02:58:18;;;;;;;2.73;2.53;;;;;;;11.23;100.00;95114.63;7399270;19;20455;-91
2023/08/02 03:00:45;;;;;;;4.50;2.93;;;;;;;10.83;100.00;95051.00;7398947;19;20755;-92
2023/08/02 03:03:12;;;;;;;4.00;2.60;;;;;;;11.77;100.00;95190.13;7405223;19;20393;-92
2023/08/02 03:05:39;;;;;;;2.80;2.57;;;;;;;9.52;100.00;94850.00;7399469;19;20725;-92
2023/08/02 03:08:07;;;;;;;3.93;2.90;;;;;;;10.63;100.00;95029.97;7399427;19;20387;-92
2023/08/02 03:10:34;;;;;;;4.20;3.80;;;;;;;10.99;100.00;95070.09;7397353;19;20380;-92
2023/08/02 03:13:01;;;;;;;8.43;3.27;;;;;;;10.36;100.00;94971.13;7400183;19;20395;-92
2023/08/02 03:15:28;;;;;;;3.87;3.40;;;;;;;11.28;100.00;95128.63;7398584;19;20380;-92
2023/08/02 03:17:55;;;;;;;5.80;3.70;;;;;;;11.18;100.00;95127.38;7399410;19;20384;-92
2023/08/02 03:20:22;;;;;;;7.27;3.90;;;;;;;10.31;100.00;95015.59;7398834;19;20406;-91
2023/08/02 03:22:49;;;;;;;4.40;3.47;;;;;;;11.02;100.00;95106.41;7398500;19;20428;-91
2023/08/02 03:25:16;;;;;;;3.63;3.30;;;;;;;10.85;100.00;95056.69;7402000;19;20373;-91
2023/08/02 03:27:43;;;;;;;3.73;3.27;;;;;;;10.72;100.00;95042.19;7400924;19;20727;-91
2023/08/02 03:30:10;;;;;;;4.23;3.77;;;;;;;10.81;100.00;95043.41;7400475;19;20380;-92
2023/08/02 03:32:37;;;;;;;5.13;4.00;;;;;;;10.78;100.00;95046.03;7398814;19;20425;-91
2023/08/02 03:35:05;;;;;;;7.17;3.17;;;;;;;11.48;100.00;95154.56;7398381;19;20391;-92
2023/08/02 03:37:32;;;;;;;5.47;3.10;;;;;;;10.97;100.00;95095.38;7398439;19;20380;-92
2023/08/02 03:39:59;;;;;;;6.57;3.10;;;;;;;11.38;100.00;95152.59;7401181;19;20411;-92
2023/08/02 03:42:26;;;;;;;5.30;3.60;;;;;;;10.95;100.00;95091.22;7398771;19;20408;-92
2023/08/02 03:44:53;;;;;;;4.57;3.10;;;;;;;11.23;100.00;95133.13;7397285;19;20714;-92
2023/08/02 03:47:23;;;;;;;3.60;2.80;;;;;;;11.25;100.00;95122.19;7397788;19;20381;-92
2023/08/02 03:49:50;;;;;;;3.30;3.00;;;;;;;11.27;100.00;95143.00;7396906;19;20393;-92
2023/08/02 03:52:17;;;;;;;4.50;3.57;;;;;;;10.95;100.00;95095.72;7395343;19;20412;-91
2023/08/02 03:54:44;;;;;;;5.80;3.30;;;;;;;11.03;100.00;95118.50;7401670;19;20389;-91
2023/08/02 03:57:11;;;;;;;5.00;3.80;;;;;;;10.42;100.00;95034.22;7397976;19;20874;-91
2023/08/02 03:59:38;;;;;;;4.03;3.27;;;;;;;11.33;100.00;95166.13;7397335;19;20401;-91
2023/08/02 04:02:05;;;;;;;5.40;3.43;;;;;;;11.43;100.00;95193.84;7400110;19;20424;-91
2023/08/02 04:04:32;;;;;;;4.17;3.20;;;;;;;11.07;100.00;95137.81;7399762;19;20381;-91
2023/08/02 04:06:59;;;;;;;4.27;3.87;;;;;;;10.54;100.00;95058.53;7405755;19;20343;-91
2023/08/02 04:09:26;;;;;;;4.00;3.70;;;;;;;11.36;100.00;95159.38;7430227;19;20377;-89
2023/08/02 04:11:53;;;;;;;3.23;2.93;;;;;;;10.70;100.00;95052.34;7411488;19;20441;-91
2023/08/02 04:14:20;;;;;;;4.33;2.53;;;;;;;10.24;100.00;94976.63;7400677;19;20416;-91
2023/08/02 04:16:47;;;;;;;6.57;3.80;;;;;;;9.95;100.00;94938.47;7404010;19;20720;-92
2023/08/02 04:19:14;;;;;;;4.93;3.47;;;;;;;10.37;100.00;95000.94;7404825;19;20388;-91
2023/08/02 04:21:41;;;;;;;10.20;4.87;;;;;;;10.87;100.00;95063.16;7404058;19;20424;-92
2023/08/02 04:24:08;;;;;;;9.03;3.10;;;;;;;11.40;100.00;95147.69;7413653;19;20405;-92
2023/08/02 04:26:35;;;;;;;3.70;3.40;;;;;;;10.67;100.00;95037.94;7429472;19;20369;-92
2023/08/02 04:29:02;;;;;;;8.40;3.20;;;;;;;10.50;100.00;95007.53;7429420;19;20388;-92
2023/08/02 04:31:29;;;;;;;3.97;3.60;;;;;;;10.40;100.00;94999.47;7429196;19;20476;-92
2023/08/02 04:33:56;;;;;;;7.60;3.83;;;;;;;11.46;100.00;95150.78;7431010;19;20399;-92
2023/08/02 04:36:23;;;;;;;5.00;4.20;;;;;;;10.33;100.00;94971.06;7432269;19;20420;-91
2023/08/02 04:38:53;;;;;;;4.20;3.80;;;;;;;10.90;100.00;95062.44;7430777;19;20392;-92
2023/08/02 04:41:20;;;;;;;4.87;3.73;;;;;;;11.25;100.00;95101.03;7415841;19;20424;-91
2023/08/02 04:43:47;;;;;;;6.53;3.43;;;;;;;11.02;100.00;95069.38;7402113;19;20379;-92
2023/08/02 04:46:15;;;;;;;7.73;4.20;;;;;;;11.09;100.00;95082.69;7399004;19;20384;-91
2023/08/02 04:48:42;;;;;;;6.00;3.80;;;;;;;11.20;100.00;95096.03;7398590;19;20413;-91
2023/08/02 04:51:10;;;;;;;5.23;3.60;;;;;;;11.20;100.00;95086.22;7400436;19;20580;-91
2023/08/02 04:53:37;;;;;;;4.20;3.80;;;;;;;11.07;100.00;95068.28;7403126;19;20381;-91
2023/08/02 04:56:10;;;;;;;4.70;3.43;;;;;;;11.38;100.00;95096.25;7400981;19;20396;-91
2023/08/02 04:58:37;;;;;;;4.30;3.50;;;;;;;11.11;100.00;95055.88;7394810;19;20385;-91
2023/08/02 05:01:04;;;;;;;5.83;3.47;;;;;;;11.20;100.00;95075.63;7400536;19;20420;-92
2023/08/02 05:03:35;;;;;;;5.70;2.90;;;;;;;10.50;100.00;94956.56;7398457;19;20353;-92
2023/08/02 05:06:05;;;;;;;5.93;4.17;;;;;;;10.33;100.00;94924.28;7399260;19;20376;-91
2023/08/02 05:08:35;;;;;;;3.90;3.40;;;;;;;11.86;100.00;95138.75;7399696;19;20393;-91
2023/08/02 05:11:07;;;;;;;4.13;3.73;;;;;;;10.95;100.00;94992.59;7400444;19;20420;-91
2023/08/02 05:13:34;;;;;;;3.80;3.50;;;;;;;10.98;100.00;94994.53;7399518;19;20383;-90
2023/08/02 05:16:02;;;;;;;7.20;3.63;;;;;;;11.87;100.00;95116.44;7397834;19;20428;-90
2023/08/02 05:18:29;;;;;;;4.27;3.07;;;;;;;11.12;100.00;94997.31;7397209;19;20508;-90
2023/08/02 05:20:56;;;;;;;7.90;3.93;;;;;;;11.58;100.00;95076.41;7399541;19;20506;-90
2023/08/02 05:23:23;;;;;;;11.73;4.53;;;;;;;10.62;100.00;94935.19;7396457;19;20826;-90
2023/08/02 05:25:50;;;;;;;5.30;3.80;;;;;;;10.79;100.00;94960.31;7398169;19;20380;-91
2023/08/02 05:28:18;;;;;;;4.27;3.70;;;;;;;11.14;100.00;95024.19;7397105;19;20400;-90
2023/08/02 05:30:47;;;;;;;5.10;3.67;;;;;;;11.71;100.00;95093.56;7398338;19;20421;-90
2023/08/02 05:33:15;;;;;;;3.70;3.37;;;;;;;11.84;100.00;95080.88;7401066;19;20984;-90
2023/08/02 05:35:42;;;;;;;2.90;2.67;;;;;;;11.11;100.00;94974.66;7398343;19;20384;-91
2023/08/02 05:38:10;;;;;;;6.43;3.40;;;;;;;11.76;100.00;95072.09;7401969;19;20392;-91
2023/08/02 05:40:37;;;;;;;5.53;3.73;;;;;;;10.84;100.00;94918.47;7396194;19;20396;-91
2023/08/02 05:43:04;;;;;;;5.40;2.80;;;;;;;11.59;100.00;95030.28;7399820;19;20957;-90
2023/08/02 05:45:31;;;;;;;4.23;3.53;;;;;;;10.52;100.00;94873.16;7398978;19;20409;-89
2023/08/02 05:47:58;;;;;;;4.53;3.63;;;;;;;12.45;100.00;95147.63;7405957;19;20397;-91
2023/08/02 05:50:25;;;;;;;10.00;3.10;;;;;;;12.58;100.00;95143.56;7399761;19;20749;-91
2023/08/02 05:52:55;;;;;;;5.57;3.80;;;;;;;12.73;100.00;95139.91;7400085;19;20472;-91
2023/08/02 05:55:22;;;;;;;6.93;3.83;;;;;;;12.62;100.00;95102.69;7401461;19;20396;-90
2023/08/02 05:57:49;;;;;;;6.77;3.67;;;;;;;12.73;100.00;95105.41;7403058;19;20775;-90
2023/08/02 06:00:17;;;;;;;4.00;3.20;;;;;;;12.82;100.00;95086.50;7400292;19;20385;-90
2023/08/02 06:02:44;;;;;;;6.33;3.20;;;;;;;12.74;100.00;95056.53;7396062;19;20431;-90
2023/08/02 06:05:11;;;;;;;4.73;2.70;;;;;;;12.89;100.00;95073.28;7396200;19;20389;-90
2023/08/02 06:07:38;;;;;;;4.93;2.73;;;;;;;12.55;100.00;95001.13;7398428;19;20916;-91
2023/08/02 06:10:06;;;;;;;3.13;2.90;;;;;;;13.09;100.00;95065.78;7401704;19;20469;-91
2023/08/02 06:12:33;;;;;;;3.23;2.50;;;;;;;11.82;100.00;94890.56;7403287;19;20423;-91
2023/08/02 06:15:00;;;;;;;2.00;1.90;;;;;;;12.13;100.00;94912.31;7405413;19;20401;-91
2023/08/02 06:17:27;;;;;;;3.30;2.80;;;;;;;13.25;100.00;95084.88;7403447;19;20388;-90
2023/08/02 06:19:54;;;;;;;3.50;2.90;;;;;;;12.62;100.00;95003.81;7403860;19;20404;-91
2023/08/02 06:22:21;;;;;;;3.57;2.97;;;;;;;13.25;100.00;95085.63;7401231;19;20420;-91
2023/08/02 06:24:48;;;;;;;5.70;2.80;;;;;;;12.19;100.00;94924.09;7404438;19;20393;-90
2023/08/02 06:27:15;;;;;;;4.00;3.63;;;;;;;12.72;100.00;95001.22;7403515;19;20394;-90
2023/08/02 06:29:42;;;;;;;5.43;2.80;;;;;;;12.78;100.00;95028.16;7404383;19;20414;-90
2023/08/02 06:32:09;;;;;;;3.87;3.20;;;;;;;11.67;100.00;94859.81;7401542;19;20500;-90
2023/08/02 06:34:36;;;;;;;3.30;3.00;;;;;;;13.51;100.00;95128.97;7403746;19;20396;-90
2023/08/02 06:37:03;;;;;;;2.77;2.57;;;;;;;12.72;100.00;95001.22;7403256;19;20384;-90
2023/08/02 06:39:32;;;;;;;3.00;2.80;;;;;;;12.71;100.00;95046.69;7405305;19;20400;-90
2023/08/02 06:41:59;;;;;;;4.20;3.00;;;;;;;11.67;100.00;94875.69;7401847;19;20424;-90
2023/08/02 06:44:26;;;;;;;6.57;2.67;;;;;;;13.09;100.00;95049.88;7403753;19;20400;-90
2023/08/02 06:46:53;;;;;;;2.87;2.60;;;;;;;12.61;100.00;95000.41;7404486;19;20797;-90
2023/08/02 06:49:20;;;;;;;3.30;2.50;;;;;;;11.95;100.00;94890.28;7404958;19;20422;-90
2023/08/02 06:51:47;;;;;;;2.60;2.40;;;;;;;13.44;100.00;95116.41;7406931;19;20930;-90
2023/08/02 06:54:14;;;;;;;3.20;2.93;;;;;;;12.94;100.00;95019.88;7401915;19;20412;-90
2023/08/02 06:56:42;;;;;;;3.77;2.43;;;;;;;12.47;100.00;94949.97;7399674;19;20448;-90
2023/08/02 06:59:09;;;;;;;5.13;3.30;;;;;;;13.65;100.00;95104.34;7403810;19;20460;-90
2023/08/02 07:01:36;;;;;;;8.93;2.93;;;;;;;12.82;100.00;94953.88;7402021;19;21027;-91
2023/08/02 07:04:03;;;;;;;3.43;2.80;;;;;;;12.80;100.00;94950.84;7401674;19;20388;-91
2023/08/02 07:06:30;;;;;;;8.63;3.17;;;;;;;12.53;100.00;94921.19;7401599;19;20380;-91
2023/08/02 07:08:58;;;;;;;4.23;3.00;;;;;;;12.79;100.00;94949.34;7402945;19;20468;-91
2023/08/02 07:11:25;;;;;;;3.50;3.20;;;;;;;13.65;100.00;95044.00;7411411;19;20433;-92
2023/08/02 07:14:03;;;;;;;3.87;3.43;;;;;;;13.79;100.00;95077.81;7432650;19;20373;-92
2023/08/02 07:16:30;;;;;;;4.00;2.93;;;;;;;13.07;100.00;94957.38;7422127;19;20444;-91
2023/08/02 07:19:00;;;;;;;3.57;3.27;;;;;;;13.59;100.00;95008.31;7403452;19;20500;-91
2023/08/02 07:21:27;;;;;;;6.27;3.10;;;;;;;13.41;100.00;94971.13;7402204;19;20965;-91
2023/08/02 07:24:05;;;;;;;3.60;3.30;;;;;;;13.10;100.00;94919.50;7398879;19;20380;-90
2023/08/02 07:39:07;;;;;;;3.47;2.50;;;;;;;12.71;100.00;94797.41;7395279;19;20384;-90
2023/08/02 07:42:18;;;;;;;2.93;2.50;;;;;;;12.95;100.00;94828.50;7398525;19;20404;-90
2023/08/02 07:45:24;;;;;;;2.83;2.00;;;;;;;12.65;100.00;94780.34;7397353;19;20372;-89
2023/08/02 07:47:59;;;;;;;3.50;2.40;;;;;;;12.76;100.00;94788.31;7399373;19;20413;-91
2023/08/02 07:50:26;;;;;;;4.90;3.33;;;;;;;12.82;100.00;94794.75;7400054;19;20392;-90
2023/08/02 07:52:53;;;;;;;4.03;2.10;;;;;;;13.45;100.00;94886.94;7394917;19;20411;-90
2023/08/02 07:55:20;;;;;;;3.40;2.30;;;;;;;13.63;100.00;94902.88;7397660;19;20381;-90
2023/08/02 07:57:47;;;;;;;7.70;2.77;;;;;;;14.60;100.00;95037.19;7400808;19;20403;-89
2023/08/02 08:00:15;;;;;;;2.50;2.30;;;;;;;14.04;100.00;94950.28;7402150;19;20947;-90
2023/08/02 08:02:42;;;;;;;3.00;2.80;;;;;;;13.71;100.00;94917.66;7399549;19;20977;-90
2023/08/02 08:05:09;;;;;;;2.67;2.43;;;;;;;14.28;100.00;95007.19;7398080;19;20381;-90
2023/08/02 08:07:36;;;;;;;2.23;2.13;;;;;;;14.08;100.00;94966.97;7401928;19;20375;-89
2023/08/02 08:10:03;;;;;;;3.43;2.70;;;;;;;14.25;100.00;94986.69;7399015;19;20750;-90
2023/08/02 08:12:30;;;;;;;2.53;2.33;;;;;;;14.23;100.00;94970.38;7397953;19;20425;-90
2023/08/02 08:14:57;;;;;;;3.30;2.87;;;;;;;14.18;100.00;94968.88;7399533;19;20384;-90
2023/08/02 08:17:24;;;;;;;5.03;2.87;;;;;;;14.19;100.00;94970.38;7401751;19;20414;-90
2023/08/02 08:19:51;;;;;;;3.97;2.90;;;;;;;14.60;100.00;95023.91;7400576;19;20417;-90
2023/08/02 08:22:19;;;;;;;5.23;2.87;;;;;;;14.53;100.00;95013.25;7402345;19;20515;-90
2023/08/02 08:24:46;;;;;;;3.50;2.63;;;;;;;14.81;100.00;95054.22;7400241;19;20406;-90
2023/08/02 08:27:13;;;;;;;5.90;2.73;;;;;;;14.68;100.00;95032.59;7401875;19;20373;-90
2023/08/02 08:29:40;;;;;;;4.37;3.50;;;;;;;14.71;100.00;95031.84;7401191;19;20401;-91
2023/08/02 08:32:07;;;;;;;3.40;2.60;;;;;;;14.44;100.00;94986.31;7398348;19;20821;-90
2023/08/02 08:34:34;;;;;;;6.53;3.90;;;;;;;14.44;100.00;94991.63;7400437;19;20393;-90
2023/08/02 08:37:02;;;;;;;2.80;2.47;;;;;;;14.63;100.00;95014.38;7402105;19;20401;-90
2023/08/02 08:39:29;;;;;;;4.03;3.70;;;;;;;14.77;100.00;95032.97;7401400;19;20388;-90
2023/08/02 08:41:59;;;;;;;2.77;2.20;;;;;;;13.88;100.00;94910.81;7401431;19;20432;-90
2023/08/02 08:44:26;;;;;;;4.80;2.80;;;;;;;14.50;100.00;94987.44;7400044;19;20392;-90
2023/08/02 08:46:59;;;;;;;4.70;2.70;;;;;;;14.59;100.00;94982.47;7401663;19;20381;-90
2023/08/02 08:49:26;;;;;;;3.07;2.87;;;;;;;14.75;100.00;94993.44;7405333;19;20380;-90
2023/08/02 08:51:58;;;;;;;3.13;2.53;;;;;;;14.85;100.00;95021.16;7406111;19;20422;-90
2023/08/02 08:54:27;;;;;;;3.13;2.90;;;;;;;14.51;100.00;94975.66;7399056;19;20380;-90
2023/08/02 08:56:55;;;;;;;4.07;2.63;;;;;;;14.32;100.00;94952.88;7397855;19;20414;-90
2023/08/02 08:59:24;;;;;;;3.23;2.97;;;;;;;14.35;100.00;94970.72;7400241;19;20364;-90
2023/08/02 09:01:51;;;;;;;3.40;3.10;;;;;;;14.70;100.00;94996.50;7397775;19;20409;-90
2023/08/02 09:04:19;;;;;;;3.30;2.70;;;;;;;14.69;100.00;94995.00;7401228;19;20377;-90
2023/08/02 09:06:46;;;;;;;10.60;4.03;;;;;;;14.70;100.00;94985.88;7398178;19;20404;-90
2023/08/02 09:09:14;;;;;;;4.03;3.00;;;;;;;14.55;100.00;94951.69;7402224;19;20385;-90
2023/08/02 09:11:42;;;;;;;3.10;2.80;;;;;;;14.74;100.00;94972.53;7396892;19;20420;-90
2023/08/02 09:14:11;;;;;;;8.83;3.40;;;;;;;14.94;100.00;94983.47;7394991;19;20405;-90
2023/08/02 09:16:58;;;;;;;3.07;2.87;;;;;;;14.87;100.00;94976.28;7397432;19;20933;-90
2023/08/02 09:19:34;;;;;;;4.80;3.30;;;;;;;14.89;100.00;94989.22;7395595;19;20372;-90
2023/08/02 09:22:27;;;;;;;4.53;3.53;;;;;;;14.73;100.00;94969.13;7398624;19;20406;-90
2023/08/02 09:24:53;;;;;;;4.10;3.70;;;;;;;14.57;100.00;94934.22;7406647;19;20405;-90
2023/08/02 09:27:20;;;;;;;3.80;3.37;;;;;;;14.76;100.00;94944.41;7408458;19;20393;-91
2023/08/02 09:29:49;;;;;;;4.60;3.60;;;;;;;15.02;100.00;94974.31;7408630;19;20365;-90
2023/08/02 09:32:18;;;;;;;5.67;4.83;;;;;;;14.79;100.00;94942.88;7395216;19;20428;-90
2023/08/02 09:34:46;;;;;;;4.67;4.17;;;;;;;14.95;100.00;94975.09;7397006;19;20915;-90
2023/08/02 09:37:14;;;;;;;4.70;3.60;;;;;;;14.61;100.00;94942.19;7397203;19;20385;-90
2023/08/02 09:39:49;;;;;;;5.10;4.33;;;;;;;14.84;100.00;94976.31;7397825;19;20397;-90
2023/08/02 09:42:21;;;;;;;4.70;4.37;;;;;;;14.60;100.00;94975.25;7393689;19;20420;-90
2023/08/02 09:44:55;;;;;;;5.97;4.30;;;;;;;14.72;100.00;94969.53;7405255;19;20448;-90
2023/08/02 09:47:26;;;;;;;6.20;3.63;;;;;;;14.43;100.00;94920.94;7405174;19;20424;-90
2023/08/02 09:50:07;;;;;;;4.47;4.07;;;;;;;14.74;100.00;94961.91;7402822;19;20404;-90
2023/08/02 09:52:35;;;;;;;4.70;4.23;;;;;;;14.43;100.00;94910.31;7402120;19;20436;-90
2023/08/02 09:55:02;;;;;;;5.03;4.53;;;;;;;14.08;100.00;94858.75;7402516;19;20459;-91
2023/08/02 09:57:31;;;;;;;3.93;3.60;;;;;;;14.46;100.00;94936.91;7402732;19;20369;-90
2023/08/02 10:00:06;;;;;;;4.47;4.07;;;;;;;13.90;100.00;94864.13;7402979;19;20376;-90
2023/08/02 10:02:43;;;;;;;5.40;4.80;;;;;;;14.21;100.00;94877.72;7420824;19;20400;-90
2023/08/02 10:05:13;;;;;;;8.07;4.40;;;;;;;14.65;100.00;94937.59;7435595;19;20361;-91
2023/08/02 10:07:46;;;;;;;4.70;4.20;;;;;;;14.35;100.00;94911.47;7437363;19;20412;-91
2023/08/02 10:10:18;;;;;;;5.37;4.00;;;;;;;13.98;100.00;94854.22;7419747;19;20900;-90
2023/08/02 10:12:52;;;;;;;5.90;5.23;;;;;;;14.29;100.00;94905.03;7400796;19;20416;-90
2023/08/02 10:15:20;;;;;;;5.10;3.70;;;;;;;13.97;100.00;94844.75;7404602;19;20378;-90
2023/08/02 10:17:47;;;;;;;7.40;4.93;;;;;;;14.45;100.00;94922.09;7402025;19;20385;-90
2023/08/02 10:20:15;;;;;;;4.77;4.03;;;;;;;14.16;100.00;94878.88;7407691;19;20442;-90
2023/08/02 10:22:47;;;;;;;5.40;4.90;;;;;;;14.25;100.00;94888.34;7422179;19;20396;-90
2023/08/02 10:25:17;;;;;;;8.00;4.80;;;;;;;14.49;100.00;94922.84;7412060;19;20436;-90
2023/08/02 10:27:46;;;;;;;4.57;4.17;;;;;;;12.59;100.00;94638.69;7407324;19;20377;-89
2023/08/02 10:30:13;;;;;;;5.90;3.93;;;;;;;13.97;100.00;94834.13;7404121;19;20373;-90
2023/08/02 10:32:41;;;;;;;5.20;4.80;;;;;;;14.20;100.00;94870.88;7400562;19;20389;-90
2023/08/02 10:35:08;;;;;;;4.40;4.00;;;;;;;14.41;100.00;94870.03;7409543;19;20912;-90
2023/08/02 10:37:53;;;;;;;4.50;4.10;;;;;;;14.66;100.00;94869.97;7407750;19;20433;-89
2023/08/02 10:40:26;;;;;;;4.80;4.07;;;;;;;14.88;100.00;94889.25;7411221;19;20367;-90
2023/08/02 10:43:19;;;;;;;6.47;5.13;;;;;;;12.92;100.00;94561.34;7409304;19;20401;-91
2023/08/02 10:46:16;;;;;;;6.63;5.40;;;;;;;14.94;100.00;94866.38;7403726;19;20372;-91
2023/08/02 10:48:43;;;;;;;6.17;3.97;;;;;;;14.37;100.00;94769.03;7401139;19;20416;-90
2023/08/02 10:51:31;;;;;;;6.70;4.43;;;;;;;15.18;100.00;94852.16;7403066;19;20420;-91
2023/08/02 10:54:18;;;;;;;8.73;5.57;;;;;;;15.23;100.00;94840.34;7401090;19;20380;-90
2023/08/02 10:56:51;;;;;;;4.87;3.50;;;;;;;15.48;100.00;94845.44;7401768;19;20357;-90
2023/08/02 10:59:25;;;;;;;4.10;3.80;;;;;;;15.51;100.00;94847.34;7404767;19;20928;-90
2023/08/02 11:02:18;;;;;;;4.80;4.40;;;;;;;15.34;100.00;94852.41;7401593;19;20377;-91
2023/08/02 11:04:47;;;;;;;4.50;4.10;;;;;;;14.96;100.00;94811.63;7401112;19;20385;-90
2023/08/02 11:07:24;;;;;;;8.77;6.17;;;;;;;15.18;100.00;94841.50;7402981;19;20393;-90
2023/08/02 11:09:54;;;;;;;3.67;3.20;;;;;;;15.17;100.00;94837.31;7401536;19;20908;-90
2023/08/02 11:12:22;;;;;;;4.13;3.47;;;;;;;14.63;100.00;94756.34;7402767;19;20412;-90
2023/08/02 11:14:51;;;;;;;6.10;4.33;;;;;;;14.73;100.00;94766.19;7402593;19;20380;-90
2023/08/02 11:17:20;;;;;;;3.60;3.30;;;;;;;14.81;100.00;94769.53;7425321;19;20407;-90
2023/08/02 11:19:52;;;;;;;4.17;3.87;;;;;;;14.37;100.00;94688.50;7421910;19;20385;-91
2023/08/02 11:22:22;;;;;;;4.17;3.73;;;;;;;14.83;100.00;94773.34;7425963;19;20445;-91
2023/08/02 11:24:52;;;;;;;3.53;3.20;;;;;;;15.03;100.00;94810.81;7431615;19;20381;-92
2023/08/02 11:27:22;;;;;;;4.43;4.03;;;;;;;14.43;100.00;94745.44;7407054;19;20385;-91
2023/08/02 11:30:18;;;;;;;3.07;2.87;;;;;;;13.30;100.00;94572.22;7401310;19;20376;-91
2023/08/02 11:32:46;;;;;;;3.73;3.40;;;;;;;14.36;100.00;94694.97;7403496;19;20405;-91
2023/08/02 11:35:15;;;;;;;3.93;3.30;;;;;;;14.62;100.00;94750.28;7398955;19;20911;-91
2023/08/02 11:37:43;;;;;;;3.43;3.17;;;;;;;13.81;100.00;94639.88;7402352;19;20397;-91
2023/08/02 11:40:11;;;;;;;3.90;3.43;;;;;;;14.07;100.00;94687.16;7402252;19;20401;-91
2023/08/02 11:42:53;;;;;;;5.07;3.43;;;;;;;13.82;100.00;94649.34;7408091;19;20432;-92
2023/08/02 11:45:35;;;;;;;3.83;3.53;;;;;;;14.38;100.00;94732.56;7428566;19;20401;-91